This is the latest recevied weather packets stored in our database for station/object IK3SVW-3. If no packets are shown the sender has not sent any weather packets the latest 10 day(s).
| Time | Temp. | Humidity | Pressure | Rain* | Wind** | Luminosity | Snow |
|---|---|---|---|---|---|---|---|
| 1777119355 | 21.11° C | 32% | 1014 hPa | 0 mm | - | - | - |
| 1777118382 | 21.11° C | 32% | 1014 hPa | 0 mm | - | - | - |
| 1777115083 | 20° C | 34% | 1014 hPa | 0 mm | - | - | - |
| 1777114483 | 20° C | 34% | 1014 hPa | 0 mm | - | - | - |
| 1777113822 | 19.44° C | 35% | 1014 hPa | 0 mm | - | - | - |
| 1777112849 | 19.44° C | 35% | 1015 hPa | 0 mm | - | - | - |
| 1777112803 | 19.44° C | 35% | 1015 hPa | 0 mm | - | - | - |
| 1777112143 | 19.44° C | 35% | 1015 hPa | 0 mm | - | - | - |
| 1777111182 | 18.89° C | 36% | 1015 hPa | 0 mm | - | - | - |
| 1777110526 | 18.89° C | 36% | 1015 hPa | 0 mm | - | - | - |
| 1777109895 | 18.89° C | 36% | 1015 hPa | 0 mm | - | - | - |
| 1777109863 | 18.89° C | 36% | 1015 hPa | 0 mm | - | - | - |
| 1777109203 | 18.33° C | 37% | 1015 hPa | 0 mm | - | - | - |
| 1777107884 | 18.33° C | 36% | 1015 hPa | 0 mm | - | - | - |
| 1777106262 | 17.78° C | 38% | 1015 hPa | 0 mm | - | - | - |
| 1777105603 | 17.78° C | 38% | 1015 hPa | 0 mm | - | - | - |
| 1777104943 | 17.22° C | 38% | 1015 hPa | 0 mm | - | - | - |
| 1777101418 | 16.11° C | 46% | 1016 hPa | 0 mm | - | - | - |
| 1777100384 | 15.56° C | 47% | 1015 hPa | 0 mm | - | - | - |
| 1777099723 | 15.56° C | 49% | 1015 hPa | 0 mm | - | - | - |
| 1777099062 | 15.56° C | 48% | 1015 hPa | 0 mm | - | - | - |
| 1777098419 | 15° C | 52% | 1015 hPa | 0 mm | - | - | - |
| 1777098412 | 15° C | 50% | 1015 hPa | 0 mm | - | - | - |
| 1777097085 | 14.44° C | 56% | 1015 hPa | 0 mm | - | - | - |
| 1777096782 | 14.44° C | 56% | 1015 hPa | 0 mm | - | - | - |
* Rain latest hour (hover to see other rain measurements)
** Current wind speed in m/s (hover to see current wind gust speed)